sensor_id;sensor_type;location;lat;lon;timestamp;P1;durP1;ratioP1;P2;durP2;ratioP2
72235;SDS011;60146;52.498;13.462;2022-09-09T00:00:16;10.67;;;6.77;;
72235;SDS011;60146;52.498;13.462;2022-09-09T00:02:48;13.40;;;7.10;;
72235;SDS011;60146;52.498;13.462;2022-09-09T00:05:20;12.87;;;7.17;;
72235;SDS011;60146;52.498;13.462;2022-09-09T00:07:52;13.73;;;7.17;;
72235;SDS011;60146;52.498;13.462;2022-09-09T00:15:21;13.03;;;7.33;;
72235;SDS011;60146;52.498;13.462;2022-09-09T00:17:51;12.70;;;7.57;;
72235;SDS011;60146;52.498;13.462;2022-09-09T00:23:12;13.87;;;7.67;;
72235;SDS011;60146;52.498;13.462;2022-09-09T00:28:24;14.27;;;7.17;;
72235;SDS011;60146;52.498;13.462;2022-09-09T00:30:50;14.50;;;7.47;;
72235;SDS011;60146;52.498;13.462;2022-09-09T00:33:22;15.47;;;7.90;;
72235;SDS011;60146;52.498;13.462;2022-09-09T00:35:49;21.60;;;8.87;;
72235;SDS011;60146;52.498;13.462;2022-09-09T00:38:26;17.67;;;9.03;;
72235;SDS011;60146;52.498;13.462;2022-09-09T00:40:56;17.43;;;8.50;;
72235;SDS011;60146;52.498;13.462;2022-09-09T00:48:33;14.30;;;7.60;;
72235;SDS011;60146;52.498;13.462;2022-09-09T00:51:03;12.00;;;6.97;;
72235;SDS011;60146;52.498;13.462;2022-09-09T00:53:51;16.77;;;7.57;;
72235;SDS011;60146;52.498;13.462;2022-09-09T00:56:24;15.37;;;7.90;;
72235;SDS011;60146;52.498;13.462;2022-09-09T01:01:21;23.40;;;9.35;;
72235;SDS011;60146;52.498;13.462;2022-09-09T01:03:52;19.90;;;9.43;;
72235;SDS011;60146;52.498;13.462;2022-09-09T01:06:31;15.10;;;7.43;;
72235;SDS011;60146;52.498;13.462;2022-09-09T01:11:50;18.60;;;8.80;;
72235;SDS011;60146;52.498;13.462;2022-09-09T01:14:22;16.80;;;7.53;;
72235;SDS011;60146;52.498;13.462;2022-09-09T01:16:50;15.13;;;7.63;;
72235;SDS011;60146;52.498;13.462;2022-09-09T01:19:22;15.63;;;7.73;;
72235;SDS011;60146;52.498;13.462;2022-09-09T01:21:54;13.80;;;7.80;;
72235;SDS011;60146;52.498;13.462;2022-09-09T01:27:05;13.97;;;7.70;;
72235;SDS011;60146;52.498;13.462;2022-09-09T01:29:31;14.27;;;8.00;;
72235;SDS011;60146;52.498;13.462;2022-09-09T01:32:01;14.23;;;7.57;;
72235;SDS011;60146;52.498;13.462;2022-09-09T01:37:26;13.77;;;7.32;;
72235;SDS011;60146;52.498;13.462;2022-09-09T01:39:51;14.57;;;7.50;;
72235;SDS011;60146;52.498;13.462;2022-09-09T01:42:16;14.73;;;7.57;;
72235;SDS011;60146;52.498;13.462;2022-09-09T01:44:42;31.37;;;13.53;;
72235;SDS011;60146;52.498;13.462;2022-09-09T01:47:07;34.33;;;14.37;;
72235;SDS011;60146;52.498;13.462;2022-09-09T01:49:33;16.60;;;8.17;;
72235;SDS011;60146;52.498;13.462;2022-09-09T01:51:58;16.77;;;7.93;;
72235;SDS011;60146;52.498;13.462;2022-09-09T01:54:24;13.87;;;7.30;;
72235;SDS011;60146;52.498;13.462;2022-09-09T02:02:19;13.93;;;6.87;;
72235;SDS011;60146;52.498;13.462;2022-09-09T02:07:17;10.88;;;6.47;;
72235;SDS011;60146;52.498;13.462;2022-09-09T02:09:45;21.50;;;10.30;;
72235;SDS011;60146;52.498;13.462;2022-09-09T02:12:13;29.10;;;12.23;;
72235;SDS011;60146;52.498;13.462;2022-09-09T02:14:40;16.30;;;7.87;;
72235;SDS011;60146;52.498;13.462;2022-09-09T02:17:10;23.70;;;10.73;;
72235;SDS011;60146;52.498;13.462;2022-09-09T02:19:46;17.57;;;7.10;;
72235;SDS011;60146;52.498;13.462;2022-09-09T02:22:14;12.27;;;6.73;;
72235;SDS011;60146;52.498;13.462;2022-09-09T02:24:40;13.03;;;6.83;;
72235;SDS011;60146;52.498;13.462;2022-09-09T02:27:06;11.93;;;6.47;;
72235;SDS011;60146;52.498;13.462;2022-09-09T02:29:34;13.23;;;6.97;;
72235;SDS011;60146;52.498;13.462;2022-09-09T02:32:04;12.60;;;6.30;;
72235;SDS011;60146;52.498;13.462;2022-09-09T02:34:31;13.80;;;6.80;;
72235;SDS011;60146;52.498;13.462;2022-09-09T02:36:59;15.63;;;7.50;;
72235;SDS011;60146;52.498;13.462;2022-09-09T02:39:25;19.00;;;8.27;;
72235;SDS011;60146;52.498;13.462;2022-09-09T02:41:50;13.17;;;7.23;;
72235;SDS011;60146;52.498;13.462;2022-09-09T02:44:16;13.33;;;6.67;;
72235;SDS011;60146;52.498;13.462;2022-09-09T02:49:44;12.27;;;6.13;;
72235;SDS011;60146;52.498;13.462;2022-09-09T02:52:14;14.80;;;6.60;;
72235;SDS011;60146;52.498;13.462;2022-09-09T02:54:41;16.53;;;6.87;;
72235;SDS011;60146;52.498;13.462;2022-09-09T03:00:11;17.07;;;6.40;;
72235;SDS011;60146;52.498;13.462;2022-09-09T03:02:37;14.50;;;6.97;;
72235;SDS011;60146;52.498;13.462;2022-09-09T03:05:03;15.37;;;7.50;;
72235;SDS011;60146;52.498;13.462;2022-09-09T03:07:29;20.77;;;8.70;;
72235;SDS011;60146;52.498;13.462;2022-09-09T03:09:55;11.97;;;6.43;;
72235;SDS011;60146;52.498;13.462;2022-09-09T03:12:20;14.87;;;7.63;;
72235;SDS011;60146;52.498;13.462;2022-09-09T03:14:45;13.80;;;7.10;;
72235;SDS011;60146;52.498;13.462;2022-09-09T03:17:11;13.20;;;6.70;;
72235;SDS011;60146;52.498;13.462;2022-09-09T03:19:36;14.00;;;7.33;;
72235;SDS011;60146;52.498;13.462;2022-09-09T03:22:02;13.07;;;6.53;;
72235;SDS011;60146;52.498;13.462;2022-09-09T03:24:29;9.87;;;5.73;;
72235;SDS011;60146;52.498;13.462;2022-09-09T03:26:54;13.77;;;6.80;;
72235;SDS011;60146;52.498;13.462;2022-09-09T03:29:20;12.37;;;5.60;;
72235;SDS011;60146;52.498;13.462;2022-09-09T03:31:46;12.60;;;6.10;;
72235;SDS011;60146;52.498;13.462;2022-09-09T03:34:11;9.53;;;5.20;;
72235;SDS011;60146;52.498;13.462;2022-09-09T03:36:38;10.70;;;6.10;;
72235;SDS011;60146;52.498;13.462;2022-09-09T03:39:03;9.40;;;5.20;;
72235;SDS011;60146;52.498;13.462;2022-09-09T03:41:29;10.20;;;5.37;;
72235;SDS011;60146;52.498;13.462;2022-09-09T03:43:54;9.53;;;5.50;;
72235;SDS011;60146;52.498;13.462;2022-09-09T03:46:20;9.07;;;5.13;;
72235;SDS011;60146;52.498;13.462;2022-09-09T03:48:46;9.50;;;5.10;;
72235;SDS011;60146;52.498;13.462;2022-09-09T03:51:11;8.73;;;5.67;;
72235;SDS011;60146;52.498;13.462;2022-09-09T03:53:36;11.30;;;5.53;;
72235;SDS011;60146;52.498;13.462;2022-09-09T03:56:03;9.07;;;5.13;;
72235;SDS011;60146;52.498;13.462;2022-09-09T03:58:29;9.23;;;5.10;;
72235;SDS011;60146;52.498;13.462;2022-09-09T04:00:58;9.23;;;4.90;;
72235;SDS011;60146;52.498;13.462;2022-09-09T04:03:24;8.95;;;4.93;;
72235;SDS011;60146;52.498;13.462;2022-09-09T04:05:50;7.33;;;4.90;;
72235;SDS011;60146;52.498;13.462;2022-09-09T04:08:16;8.67;;;4.77;;
72235;SDS011;60146;52.498;13.462;2022-09-09T04:10:41;12.03;;;5.50;;
72235;SDS011;60146;52.498;13.462;2022-09-09T04:13:07;8.07;;;4.87;;
72235;SDS011;60146;52.498;13.462;2022-09-09T04:15:32;9.03;;;4.93;;
72235;SDS011;60146;52.498;13.462;2022-09-09T04:17:59;8.77;;;5.20;;
72235;SDS011;60146;52.498;13.462;2022-09-09T04:20:25;11.13;;;5.70;;
72235;SDS011;60146;52.498;13.462;2022-09-09T04:22:50;13.10;;;5.17;;
72235;SDS011;60146;52.498;13.462;2022-09-09T04:25:15;9.10;;;5.20;;
72235;SDS011;60146;52.498;13.462;2022-09-09T04:27:41;12.30;;;5.43;;
72235;SDS011;60146;52.498;13.462;2022-09-09T04:30:07;12.40;;;5.97;;
72235;SDS011;60146;52.498;13.462;2022-09-09T04:32:33;12.83;;;5.77;;
72235;SDS011;60146;52.498;13.462;2022-09-09T04:34:58;12.30;;;4.93;;
72235;SDS011;60146;52.498;13.462;2022-09-09T04:37:23;10.73;;;5.63;;
72235;SDS011;60146;52.498;13.462;2022-09-09T04:39:49;8.83;;;4.97;;
72235;SDS011;60146;52.498;13.462;2022-09-09T04:42:15;11.83;;;4.87;;
72235;SDS011;60146;52.498;13.462;2022-09-09T04:44:41;8.83;;;4.63;;
72235;SDS011;60146;52.498;13.462;2022-09-09T04:47:06;9.88;;;4.82;;
72235;SDS011;60146;52.498;13.462;2022-09-09T04:49:31;12.80;;;4.87;;
72235;SDS011;60146;52.498;13.462;2022-09-09T04:51:56;9.20;;;4.55;;
72235;SDS011;60146;52.498;13.462;2022-09-09T04:54:21;9.27;;;4.50;;
72235;SDS011;60146;52.498;13.462;2022-09-09T04:56:47;11.70;;;4.80;;
72235;SDS011;60146;52.498;13.462;2022-09-09T04:59:12;12.87;;;5.20;;
72235;SDS011;60146;52.498;13.462;2022-09-09T05:01:37;9.90;;;4.77;;
72235;SDS011;60146;52.498;13.462;2022-09-09T05:04:03;9.60;;;4.80;;
72235;SDS011;60146;52.498;13.462;2022-09-09T05:06:28;10.57;;;5.07;;
72235;SDS011;60146;52.498;13.462;2022-09-09T05:08:56;10.47;;;5.03;;
72235;SDS011;60146;52.498;13.462;2022-09-09T05:11:24;10.27;;;5.17;;
72235;SDS011;60146;52.498;13.462;2022-09-09T05:13:49;7.40;;;4.37;;
72235;SDS011;60146;52.498;13.462;2022-09-09T05:16:15;10.30;;;5.00;;
72235;SDS011;60146;52.498;13.462;2022-09-09T05:18:41;10.37;;;4.77;;
72235;SDS011;60146;52.498;13.462;2022-09-09T05:21:07;11.40;;;4.97;;
72235;SDS011;60146;52.498;13.462;2022-09-09T05:23:33;8.73;;;4.50;;
72235;SDS011;60146;52.498;13.462;2022-09-09T05:25:59;11.97;;;4.47;;
72235;SDS011;60146;52.498;13.462;2022-09-09T05:28:24;8.47;;;4.50;;
72235;SDS011;60146;52.498;13.462;2022-09-09T05:30:57;9.53;;;4.20;;
72235;SDS011;60146;52.498;13.462;2022-09-09T05:33:23;8.37;;;4.23;;
72235;SDS011;60146;52.498;13.462;2022-09-09T05:35:54;11.17;;;4.40;;
72235;SDS011;60146;52.498;13.462;2022-09-09T05:38:20;10.87;;;4.87;;
72235;SDS011;60146;52.498;13.462;2022-09-09T05:40:49;9.60;;;3.97;;
72235;SDS011;60146;52.498;13.462;2022-09-09T05:43:15;11.03;;;3.90;;
72235;SDS011;60146;52.498;13.462;2022-09-09T05:45:40;12.47;;;4.30;;
72235;SDS011;60146;52.498;13.462;2022-09-09T05:48:08;7.60;;;3.70;;
72235;SDS011;60146;52.498;13.462;2022-09-09T05:50:33;10.80;;;4.17;;
72235;SDS011;60146;52.498;13.462;2022-09-09T05:52:58;7.80;;;4.00;;
72235;SDS011;60146;52.498;13.462;2022-09-09T05:55:24;11.70;;;4.27;;
72235;SDS011;60146;52.498;13.462;2022-09-09T05:57:50;9.83;;;4.17;;
72235;SDS011;60146;52.498;13.462;2022-09-09T06:00:16;6.63;;;3.97;;
72235;SDS011;60146;52.498;13.462;2022-09-09T06:02:42;6.47;;;3.30;;
72235;SDS011;60146;52.498;13.462;2022-09-09T06:05:07;5.57;;;3.53;;
72235;SDS011;60146;52.498;13.462;2022-09-09T06:07:33;6.30;;;3.60;;
72235;SDS011;60146;52.498;13.462;2022-09-09T06:09:58;8.50;;;4.13;;
72235;SDS011;60146;52.498;13.462;2022-09-09T06:12:25;6.70;;;3.40;;
72235;SDS011;60146;52.498;13.462;2022-09-09T06:14:50;4.63;;;3.33;;
72235;SDS011;60146;52.498;13.462;2022-09-09T06:17:15;6.50;;;3.20;;
72235;SDS011;60146;52.498;13.462;2022-09-09T06:19:41;4.07;;;2.73;;
72235;SDS011;60146;52.498;13.462;2022-09-09T06:22:06;7.10;;;3.30;;
72235;SDS011;60146;52.498;13.462;2022-09-09T06:24:31;5.47;;;2.47;;
72235;SDS011;60146;52.498;13.462;2022-09-09T06:26:57;8.47;;;3.33;;
72235;SDS011;60146;52.498;13.462;2022-09-09T06:29:22;4.28;;;2.56;;
72235;SDS011;60146;52.498;13.462;2022-09-09T06:31:48;5.50;;;3.13;;
72235;SDS011;60146;52.498;13.462;2022-09-09T06:34:13;6.97;;;2.70;;
72235;SDS011;60146;52.498;13.462;2022-09-09T06:36:38;6.98;;;2.80;;
72235;SDS011;60146;52.498;13.462;2022-09-09T06:39:04;4.87;;;2.40;;
72235;SDS011;60146;52.498;13.462;2022-09-09T06:41:30;5.10;;;2.53;;
72235;SDS011;60146;52.498;13.462;2022-09-09T06:43:55;9.43;;;2.70;;
72235;SDS011;60146;52.498;13.462;2022-09-09T06:46:22;4.77;;;2.23;;
72235;SDS011;60146;52.498;13.462;2022-09-09T06:48:47;4.83;;;2.10;;
72235;SDS011;60146;52.498;13.462;2022-09-09T06:53:38;2.73;;;2.07;;
72235;SDS011;60146;52.498;13.462;2022-09-09T06:58:36;3.37;;;2.00;;
72235;SDS011;60146;52.498;13.462;2022-09-09T07:01:04;3.30;;;1.87;;
72235;SDS011;60146;52.498;13.462;2022-09-09T07:03:30;7.30;;;3.33;;
72235;SDS011;60146;52.498;13.462;2022-09-09T07:05:56;7.10;;;2.37;;
72235;SDS011;60146;52.498;13.462;2022-09-09T07:08:21;5.87;;;2.27;;
72235;SDS011;60146;52.498;13.462;2022-09-09T07:10:46;6.03;;;1.90;;
72235;SDS011;60146;52.498;13.462;2022-09-09T07:13:12;3.80;;;2.17;;
72235;SDS011;60146;52.498;13.462;2022-09-09T07:15:40;3.28;;;2.08;;
72235;SDS011;60146;52.498;13.462;2022-09-09T07:18:06;5.80;;;2.30;;
72235;SDS011;60146;52.498;13.462;2022-09-09T07:20:31;8.53;;;2.10;;
72235;SDS011;60146;52.498;13.462;2022-09-09T07:22:56;5.65;;;2.15;;
72235;SDS011;60146;52.498;13.462;2022-09-09T07:25:22;5.07;;;2.00;;
72235;SDS011;60146;52.498;13.462;2022-09-09T07:27:47;4.70;;;1.80;;
72235;SDS011;60146;52.498;13.462;2022-09-09T07:30:12;7.35;;;2.20;;
72235;SDS011;60146;52.498;13.462;2022-09-09T07:32:37;3.78;;;2.00;;
72235;SDS011;60146;52.498;13.462;2022-09-09T07:35:03;4.93;;;1.80;;
72235;SDS011;60146;52.498;13.462;2022-09-09T07:37:37;5.03;;;1.80;;
72235;SDS011;60146;52.498;13.462;2022-09-09T07:40:03;3.90;;;1.95;;
72235;SDS011;60146;52.498;13.462;2022-09-09T07:42:28;5.65;;;1.80;;
72235;SDS011;60146;52.498;13.462;2022-09-09T07:44:54;4.85;;;1.90;;
72235;SDS011;60146;52.498;13.462;2022-09-09T07:47:19;5.78;;;1.80;;
72235;SDS011;60146;52.498;13.462;2022-09-09T07:49:45;5.85;;;2.00;;
72235;SDS011;60146;52.498;13.462;2022-09-09T07:52:11;6.00;;;2.05;;
72235;SDS011;60146;52.498;13.462;2022-09-09T07:54:36;7.65;;;2.08;;
72235;SDS011;60146;52.498;13.462;2022-09-09T07:57:02;7.45;;;1.77;;
72235;SDS011;60146;52.498;13.462;2022-09-09T07:59:28;5.97;;;2.10;;
72235;SDS011;60146;52.498;13.462;2022-09-09T08:01:54;4.72;;;1.50;;
72235;SDS011;60146;52.498;13.462;2022-09-09T08:04:20;6.47;;;1.75;;
72235;SDS011;60146;52.498;13.462;2022-09-09T08:09:11;4.10;;;1.92;;
72235;SDS011;60146;52.498;13.462;2022-09-09T08:11:37;5.18;;;1.60;;
72235;SDS011;60146;52.498;13.462;2022-09-09T08:14:03;7.15;;;1.60;;
72235;SDS011;60146;52.498;13.462;2022-09-09T08:16:30;5.03;;;1.80;;
72235;SDS011;60146;52.498;13.462;2022-09-09T08:18:55;4.20;;;1.58;;
72235;SDS011;60146;52.498;13.462;2022-09-09T08:21:22;10.88;;;1.80;;
72235;SDS011;60146;52.498;13.462;2022-09-09T08:23:49;5.38;;;1.33;;
72235;SDS011;60146;52.498;13.462;2022-09-09T08:26:16;4.50;;;1.60;;
72235;SDS011;60146;52.498;13.462;2022-09-09T08:28:42;5.57;;;1.50;;
72235;SDS011;60146;52.498;13.462;2022-09-09T08:31:12;3.63;;;1.30;;
72235;SDS011;60146;52.498;13.462;2022-09-09T08:33:38;3.22;;;1.38;;
72235;SDS011;60146;52.498;13.462;2022-09-09T08:36:04;4.95;;;1.60;;
72235;SDS011;60146;52.498;13.462;2022-09-09T08:38:30;3.38;;;1.50;;
72235;SDS011;60146;52.498;13.462;2022-09-09T08:40:57;2.88;;;1.20;;
72235;SDS011;60146;52.498;13.462;2022-09-09T08:43:25;2.38;;;1.38;;
72235;SDS011;60146;52.498;13.462;2022-09-09T08:48:24;3.00;;;1.30;;
72235;SDS011;60146;52.498;13.462;2022-09-09T08:50:54;6.47;;;1.40;;
72235;SDS011;60146;52.498;13.462;2022-09-09T08:53:27;2.88;;;1.40;;
72235;SDS011;60146;52.498;13.462;2022-09-09T08:58:30;5.43;;;1.40;;
72235;SDS011;60146;52.498;13.462;2022-09-09T09:03:43;2.65;;;1.00;;
72235;SDS011;60146;52.498;13.462;2022-09-09T09:06:37;1.90;;;1.20;;
72235;SDS011;60146;52.498;13.462;2022-09-09T09:09:05;2.08;;;1.08;;
72235;SDS011;60146;52.498;13.462;2022-09-09T09:11:39;3.20;;;1.23;;
72235;SDS011;60146;52.498;13.462;2022-09-09T09:14:13;5.03;;;1.58;;
72235;SDS011;60146;52.498;13.462;2022-09-09T09:19:11;4.10;;;1.08;;
72235;SDS011;60146;52.498;13.462;2022-09-09T09:21:43;4.53;;;1.45;;
72235;SDS011;60146;52.498;13.462;2022-09-09T09:24:19;2.03;;;1.02;;
72235;SDS011;60146;52.498;13.462;2022-09-09T09:26:44;5.07;;;1.33;;
72235;SDS011;60146;52.498;13.462;2022-09-09T09:29:11;7.28;;;1.80;;
72235;SDS011;60146;52.498;13.462;2022-09-09T09:31:37;6.68;;;1.40;;
72235;SDS011;60146;52.498;13.462;2022-09-09T09:34:02;3.55;;;1.60;;
72235;SDS011;60146;52.498;13.462;2022-09-09T09:36:35;5.72;;;1.20;;
72235;SDS011;60146;52.498;13.462;2022-09-09T09:39:03;5.93;;;1.25;;
72235;SDS011;60146;52.498;13.462;2022-09-09T09:41:31;4.82;;;1.33;;
72235;SDS011;60146;52.498;13.462;2022-09-09T09:43:57;5.00;;;1.30;;
72235;SDS011;60146;52.498;13.462;2022-09-09T09:46:23;4.50;;;1.20;;
72235;SDS011;60146;52.498;13.462;2022-09-09T09:49:02;2.88;;;1.30;;
72235;SDS011;60146;52.498;13.462;2022-09-09T09:51:28;2.85;;;1.38;;
72235;SDS011;60146;52.498;13.462;2022-09-09T09:53:54;7.10;;;1.20;;
72235;SDS011;60146;52.498;13.462;2022-09-09T09:56:28;2.75;;;1.42;;
72235;SDS011;60146;52.498;13.462;2022-09-09T09:58:54;5.88;;;1.27;;
72235;SDS011;60146;52.498;13.462;2022-09-09T10:01:26;3.17;;;1.25;;
72235;SDS011;60146;52.498;13.462;2022-09-09T10:03:53;3.47;;;1.30;;
72235;SDS011;60146;52.498;13.462;2022-09-09T10:06:33;4.72;;;1.80;;
72235;SDS011;60146;52.498;13.462;2022-09-09T10:11:26;2.28;;;0.90;;
72235;SDS011;60146;52.498;13.462;2022-09-09T10:17:01;4.32;;;1.20;;
72235;SDS011;60146;52.498;13.462;2022-09-09T10:19:32;3.85;;;0.90;;
72235;SDS011;60146;52.498;13.462;2022-09-09T10:29:32;5.75;;;1.38;;
72235;SDS011;60146;52.498;13.462;2022-09-09T10:37:52;2.10;;;0.93;;
72235;SDS011;60146;52.498;13.462;2022-09-09T10:40:26;3.08;;;1.10;;
72235;SDS011;60146;52.498;13.462;2022-09-09T10:42:55;3.40;;;1.15;;
72235;SDS011;60146;52.498;13.462;2022-09-09T10:45:25;2.30;;;1.00;;
72235;SDS011;60146;52.498;13.462;2022-09-09T10:48:02;2.25;;;0.90;;
72235;SDS011;60146;52.498;13.462;2022-09-09T10:50:42;4.65;;;1.10;;
72235;SDS011;60146;52.498;13.462;2022-09-09T10:53:15;2.05;;;0.90;;
72235;SDS011;60146;52.498;13.462;2022-09-09T10:55:45;2.00;;;1.00;;
72235;SDS011;60146;52.498;13.462;2022-09-09T10:58:14;4.53;;;1.10;;
72235;SDS011;60146;52.498;13.462;2022-09-09T11:00:53;2.75;;;0.82;;
72235;SDS011;60146;52.498;13.462;2022-09-09T11:03:20;2.78;;;1.00;;
72235;SDS011;60146;52.498;13.462;2022-09-09T11:05:51;5.55;;;1.08;;
72235;SDS011;60146;52.498;13.462;2022-09-09T11:08:22;5.50;;;1.42;;
72235;SDS011;60146;52.498;13.462;2022-09-09T11:10:53;2.30;;;1.00;;
72235;SDS011;60146;52.498;13.462;2022-09-09T11:13:47;3.88;;;1.10;;
72235;SDS011;60146;52.498;13.462;2022-09-09T11:16:19;2.40;;;1.10;;
72235;SDS011;60146;52.498;13.462;2022-09-09T11:21:24;2.22;;;1.10;;
72235;SDS011;60146;52.498;13.462;2022-09-09T11:23:54;3.13;;;0.90;;
72235;SDS011;60146;52.498;13.462;2022-09-09T11:26:28;4.78;;;1.08;;
72235;SDS011;60146;52.498;13.462;2022-09-09T11:28:58;1.92;;;0.80;;
72235;SDS011;60146;52.498;13.462;2022-09-09T11:31:33;3.13;;;0.82;;
72235;SDS011;60146;52.498;13.462;2022-09-09T11:36:43;2.13;;;0.85;;
72235;SDS011;60146;52.498;13.462;2022-09-09T11:42:05;2.47;;;0.88;;
72235;SDS011;60146;52.498;13.462;2022-09-09T11:44:31;2.85;;;0.90;;
72235;SDS011;60146;52.498;13.462;2022-09-09T11:46:57;5.28;;;1.33;;
72235;SDS011;60146;52.498;13.462;2022-09-09T11:49:26;10.23;;;1.60;;
72235;SDS011;60146;52.498;13.462;2022-09-09T11:51:51;8.15;;;1.10;;
72235;SDS011;60146;52.498;13.462;2022-09-09T11:56:54;4.07;;;0.93;;
72235;SDS011;60146;52.498;13.462;2022-09-09T11:59:20;4.25;;;1.20;;
72235;SDS011;60146;52.498;13.462;2022-09-09T12:01:49;0.80;;;0.70;;
72235;SDS011;60146;52.498;13.462;2022-09-09T12:06:46;5.72;;;1.10;;
72235;SDS011;60146;52.498;13.462;2022-09-09T12:09:18;2.78;;;0.90;;
72235;SDS011;60146;52.498;13.462;2022-09-09T12:14:44;3.70;;;1.00;;
72235;SDS011;60146;52.498;13.462;2022-09-09T12:17:20;5.18;;;1.00;;
72235;SDS011;60146;52.498;13.462;2022-09-09T12:19:45;3.92;;;0.88;;
72235;SDS011;60146;52.498;13.462;2022-09-09T12:24:42;5.20;;;0.90;;
72235;SDS011;60146;52.498;13.462;2022-09-09T12:29:47;3.85;;;0.90;;
72235;SDS011;60146;52.498;13.462;2022-09-09T12:32:15;2.30;;;0.77;;
72235;SDS011;60146;52.498;13.462;2022-09-09T12:34:44;2.95;;;0.70;;
72235;SDS011;60146;52.498;13.462;2022-09-09T12:40:19;2.08;;;0.68;;
72235;SDS011;60146;52.498;13.462;2022-09-09T12:42:44;1.38;;;0.68;;
72235;SDS011;60146;52.498;13.462;2022-09-09T12:45:17;2.00;;;0.60;;
72235;SDS011;60146;52.498;13.462;2022-09-09T12:47:51;2.63;;;0.80;;
72235;SDS011;60146;52.498;13.462;2022-09-09T12:50:20;3.70;;;0.80;;
72235;SDS011;60146;52.498;13.462;2022-09-09T12:52:46;1.85;;;0.68;;
72235;SDS011;60146;52.498;13.462;2022-09-09T12:55:15;3.22;;;0.80;;
72235;SDS011;60146;52.498;13.462;2022-09-09T12:57:41;4.03;;;1.23;;
72235;SDS011;60146;52.498;13.462;2022-09-09T13:00:12;3.83;;;1.50;;
72235;SDS011;60146;52.498;13.462;2022-09-09T13:02:46;5.55;;;1.13;;
72235;SDS011;60146;52.498;13.462;2022-09-09T13:05:13;5.68;;;1.75;;
72235;SDS011;60146;52.498;13.462;2022-09-09T13:07:39;4.53;;;0.90;;
72235;SDS011;60146;52.498;13.462;2022-09-09T13:10:04;2.60;;;0.80;;
72235;SDS011;60146;52.498;13.462;2022-09-09T13:12:30;3.55;;;0.95;;
72235;SDS011;60146;52.498;13.462;2022-09-09T13:14:58;1.70;;;0.80;;
72235;SDS011;60146;52.498;13.462;2022-09-09T13:17:24;1.92;;;0.63;;
72235;SDS011;60146;52.498;13.462;2022-09-09T13:19:51;3.22;;;0.93;;
72235;SDS011;60146;52.498;13.462;2022-09-09T13:22:27;1.67;;;0.75;;
72235;SDS011;60146;52.498;13.462;2022-09-09T13:25:17;3.28;;;1.40;;
72235;SDS011;60146;52.498;13.462;2022-09-09T13:27:51;2.45;;;0.70;;
72235;SDS011;60146;52.498;13.462;2022-09-09T13:30:25;1.75;;;0.60;;
72235;SDS011;60146;52.498;13.462;2022-09-09T13:35:34;2.58;;;0.50;;
72235;SDS011;60146;52.498;13.462;2022-09-09T13:38:07;2.15;;;0.80;;
72235;SDS011;60146;52.498;13.462;2022-09-09T13:40:33;3.25;;;1.20;;
72235;SDS011;60146;52.498;13.462;2022-09-09T13:42:59;2.35;;;0.70;;
72235;SDS011;60146;52.498;13.462;2022-09-09T13:45:25;2.22;;;0.60;;
72235;SDS011;60146;52.498;13.462;2022-09-09T13:47:53;1.70;;;0.60;;
72235;SDS011;60146;52.498;13.462;2022-09-09T13:52:48;2.20;;;1.00;;
72235;SDS011;60146;52.498;13.462;2022-09-09T13:55:16;1.70;;;0.85;;
72235;SDS011;60146;52.498;13.462;2022-09-09T13:57:54;4.47;;;1.00;;
72235;SDS011;60146;52.498;13.462;2022-09-09T14:00:20;2.28;;;0.75;;
72235;SDS011;60146;52.498;13.462;2022-09-09T14:02:46;1.33;;;0.82;;
72235;SDS011;60146;52.498;13.462;2022-09-09T14:05:12;1.60;;;0.50;;
72235;SDS011;60146;52.498;13.462;2022-09-09T14:07:37;4.10;;;1.10;;
72235;SDS011;60146;52.498;13.462;2022-09-09T14:10:03;4.18;;;1.10;;
72235;SDS011;60146;52.498;13.462;2022-09-09T14:12:28;1.33;;;0.70;;
72235;SDS011;60146;52.498;13.462;2022-09-09T14:14:54;2.63;;;0.88;;
72235;SDS011;60146;52.498;13.462;2022-09-09T14:17:19;3.35;;;1.00;;
72235;SDS011;60146;52.498;13.462;2022-09-09T14:19:44;6.80;;;1.20;;
72235;SDS011;60146;52.498;13.462;2022-09-09T14:22:10;3.20;;;0.90;;
72235;SDS011;60146;52.498;13.462;2022-09-09T14:24:36;3.83;;;0.80;;
72235;SDS011;60146;52.498;13.462;2022-09-09T14:27:01;2.58;;;1.00;;
72235;SDS011;60146;52.498;13.462;2022-09-09T14:29:26;3.95;;;0.70;;
72235;SDS011;60146;52.498;13.462;2022-09-09T14:31:51;5.88;;;0.88;;
72235;SDS011;60146;52.498;13.462;2022-09-09T14:34:17;3.70;;;1.10;;
72235;SDS011;60146;52.498;13.462;2022-09-09T14:36:42;3.95;;;1.10;;
72235;SDS011;60146;52.498;13.462;2022-09-09T14:39:09;4.75;;;1.30;;
72235;SDS011;60146;52.498;13.462;2022-09-09T14:41:34;3.67;;;1.10;;
72235;SDS011;60146;52.498;13.462;2022-09-09T14:44:00;3.53;;;0.85;;
72235;SDS011;60146;52.498;13.462;2022-09-09T14:46:25;7.50;;;1.08;;
72235;SDS011;60146;52.498;13.462;2022-09-09T14:48:51;5.10;;;1.10;;
72235;SDS011;60146;52.498;13.462;2022-09-09T14:51:20;5.60;;;1.35;;
72235;SDS011;60146;52.498;13.462;2022-09-09T14:53:47;3.20;;;1.17;;
72235;SDS011;60146;52.498;13.462;2022-09-09T14:56:14;3.65;;;1.00;;
72235;SDS011;60146;52.498;13.462;2022-09-09T14:58:39;2.13;;;0.70;;
72235;SDS011;60146;52.498;13.462;2022-09-09T15:01:05;6.60;;;1.27;;
72235;SDS011;60146;52.498;13.462;2022-09-09T15:03:31;4.38;;;1.23;;
72235;SDS011;60146;52.498;13.462;2022-09-09T15:05:56;4.55;;;1.00;;
72235;SDS011;60146;52.498;13.462;2022-09-09T15:08:23;2.13;;;1.00;;
72235;SDS011;60146;52.498;13.462;2022-09-09T15:10:48;2.13;;;0.60;;
72235;SDS011;60146;52.498;13.462;2022-09-09T15:13:15;2.72;;;0.88;;
72235;SDS011;60146;52.498;13.462;2022-09-09T15:15:42;2.95;;;0.60;;
72235;SDS011;60146;52.498;13.462;2022-09-09T15:18:07;2.28;;;0.70;;
72235;SDS011;60146;52.498;13.462;2022-09-09T15:20:32;3.97;;;1.05;;
72235;SDS011;60146;52.498;13.462;2022-09-09T15:22:57;1.83;;;0.80;;
72235;SDS011;60146;52.498;13.462;2022-09-09T15:25:23;2.35;;;0.70;;
72235;SDS011;60146;52.498;13.462;2022-09-09T15:27:48;1.65;;;0.80;;
72235;SDS011;60146;52.498;13.462;2022-09-09T15:30:13;2.85;;;0.80;;
72235;SDS011;60146;52.498;13.462;2022-09-09T15:32:38;1.98;;;0.80;;
72235;SDS011;60146;52.498;13.462;2022-09-09T15:35:04;2.35;;;0.80;;
72235;SDS011;60146;52.498;13.462;2022-09-09T15:37:30;4.22;;;0.82;;
72235;SDS011;60146;52.498;13.462;2022-09-09T15:39:55;1.58;;;1.05;;
72235;SDS011;60146;52.498;13.462;2022-09-09T15:42:23;1.88;;;0.90;;
72235;SDS011;60146;52.498;13.462;2022-09-09T15:44:50;4.88;;;0.90;;
72235;SDS011;60146;52.498;13.462;2022-09-09T15:47:15;3.72;;;1.30;;
72235;SDS011;60146;52.498;13.462;2022-09-09T15:49:41;5.55;;;0.70;;
72235;SDS011;60146;52.498;13.462;2022-09-09T15:52:08;4.50;;;1.00;;
72235;SDS011;60146;52.498;13.462;2022-09-09T15:54:34;1.38;;;0.73;;
72235;SDS011;60146;52.498;13.462;2022-09-09T15:57:01;3.55;;;0.90;;
72235;SDS011;60146;52.498;13.462;2022-09-09T15:59:27;3.28;;;0.75;;
72235;SDS011;60146;52.498;13.462;2022-09-09T16:01:53;3.65;;;1.05;;
72235;SDS011;60146;52.498;13.462;2022-09-09T16:04:19;1.00;;;0.65;;
72235;SDS011;60146;52.498;13.462;2022-09-09T16:06:51;2.55;;;0.90;;
72235;SDS011;60146;52.498;13.462;2022-09-09T16:09:16;4.32;;;0.95;;
72235;SDS011;60146;52.498;13.462;2022-09-09T16:11:42;1.85;;;0.70;;
72235;SDS011;60146;52.498;13.462;2022-09-09T16:14:07;2.25;;;0.80;;
72235;SDS011;60146;52.498;13.462;2022-09-09T16:16:32;3.67;;;1.08;;
72235;SDS011;60146;52.498;13.462;2022-09-09T16:18:59;4.32;;;1.10;;